Boston, MA (02112)

8:59 AM EST on December 21, 2014 (GMT -0500)
South Boston | Change Station
CLOSE
Current Station
Personal Weather Station
Location: Boston, MA
Elevation: 33 ft
Nearby Weather Stations

Elev 33 ft 42.34 °N, 71.06 °W | Updated 8 minutes ago

Light Snow
Light Snow
30.7 °F
Feels Like 24 °F
N
7.0
Wind Variable Wind from NE
Gusts 18.0 mph

Today
High -- | Low -- °F
--% Chance of Precip.
Yesterday
High -- | Low -- °F
Precip. -- in
7:10 AM 4:14 PM
Waning Crescent, 0% visible
Pressure 30.32 in
Visibility 9.0 miles
Clouds Few 1700 ft
Overcast 5500 ft
Windchill 24 °F
Dew Point 27 °F
Humidity 85%
Rainfall 0.00 in
Snow Depth Not available.
UV 0 out of 12
Pollen .10 out of 12
Air Quality Not available.
Flu Activity Not available.
METAR KBOS 211354Z 36011KT 9SM -SN FEW017 OVC055 M01/M04 A3032 RMK AO2 SNB43 SLP267 P0000 T10111039

More Conditions Fewer Conditions

Pressure 30.32 in
Visibility 9.0 miles
Clouds Few 1700 ft
Overcast 5500 ft
Windchill 24 °F
Dew Point 27 °F
Humidity 85%
Rainfall 0.00 in
Snow Depth Not available.
UV 0 out of 12
Pollen .10 out of 12
Air Quality Not available.
Flu Activity Not available.
METAR KBOS 211354Z 36011KT 9SM -SN FEW017 OVC055 M01/M04 A3032 RMK AO2 SNB43 SLP267 P0000 T10111039

More Conditions Fewer Conditions

10-Day Weather Forecast

Almanac

Astronomy

Dec. 21, 2014 Rise Set
Actual Time
Civil Twilight
Nautical Twilight
Astronomical Twilight
Moon
Length of Visible Light
Length of Day
Tomorrow will be .
, % of the Moon is Illuminated

Today's Extremes

State Highs State Lows

Community

WunderPhotos

Upload Photos

1,779,386 photos uploaded!

WunderBlogs® & News

Nearby

Air Quality

  Air Quality AQ Index Pollutant
Not available.

Snow Depth

Station Depth Elevation

Earthquake Activity

City Distance Mag. Time & Date
Minimum magnitude displayed is 2.5.

Coastal Water Temperatures

Place Temperature

Nearby Weather Stations